createdAt,value
2019-04-22T00:01:24.791Z,15.10
2019-04-22T00:03:55.178Z,15.00
2019-04-22T00:06:48.034Z,15.10
2019-04-22T00:09:19.526Z,15.00
2019-04-22T00:11:59.242Z,14.90
2019-04-22T00:14:11.916Z,14.80
2019-04-22T00:17:10.005Z,14.80
2019-04-22T00:19:20.886Z,14.80
2019-04-22T00:21:48.989Z,14.60
2019-04-22T00:24:20.465Z,14.60
2019-04-22T00:26:50.303Z,14.60
2019-04-22T00:29:49.622Z,14.50
2019-04-22T00:32:05.652Z,14.50
2019-04-22T00:34:43.766Z,14.50
2019-04-22T00:37:16.792Z,14.40
2019-04-22T00:39:46.651Z,14.40
2019-04-22T00:42:18.189Z,14.40
2019-04-22T00:44:47.077Z,14.30
2019-04-22T00:47:23.218Z,14.20
2019-04-22T00:52:16.510Z,14.20
2019-04-22T00:54:57.217Z,14.30
2019-04-22T00:57:15.340Z,14.30
2019-04-22T00:59:52.261Z,14.20
2019-04-22T01:02:20.275Z,14.10
2019-04-22T01:05:09.790Z,14.10
2019-04-22T01:07:18.920Z,14.00
2019-04-22T01:09:53.641Z,13.90
2019-04-22T01:12:21.261Z,14.20
2019-04-22T01:14:49.607Z,14.00
2019-04-22T01:17:19.650Z,14.00
2019-04-22T01:19:56.311Z,13.90
2019-04-22T01:22:22.122Z,13.80
2019-04-22T01:24:52.693Z,14.00
2019-04-22T01:27:19.064Z,13.80
2019-04-22T01:29:46.312Z,13.70
2019-04-22T01:32:13.218Z,13.80
2019-04-22T01:34:51.413Z,13.70
2019-04-22T01:37:23.946Z,13.70
2019-04-22T01:42:35.622Z,13.60
2019-04-22T01:44:59.595Z,13.70
2019-04-22T01:47:34.237Z,13.60
2019-04-22T01:50:02.525Z,13.50
2019-04-22T01:52:31.043Z,13.30
2019-04-22T01:55:04.472Z,13.40
2019-04-22T01:57:28.456Z,13.50
2019-04-22T01:59:58.704Z,13.60
2019-04-22T02:02:36.037Z,13.60
2019-04-22T02:05:10.606Z,13.50
2019-04-22T02:07:36.529Z,13.40
2019-04-22T02:10:02.247Z,13.60
2019-04-22T02:15:06.576Z,13.40
2019-04-22T02:17:39.749Z,13.20
2019-04-22T02:20:12.065Z,13.20
2019-04-22T02:23:00.395Z,13.20
2019-04-22T02:25:13.477Z,13.10
2019-04-22T02:27:45.797Z,13.20
2019-04-22T02:30:05.872Z,12.90
2019-04-22T02:33:13.410Z,12.80
2019-04-22T02:35:24.125Z,12.70
2019-04-22T02:37:46.235Z,12.60
2019-04-22T02:40:17.452Z,12.70
2019-04-22T02:42:42.881Z,12.70
2019-04-22T02:45:19.123Z,12.70
2019-04-22T02:47:42.254Z,12.70
2019-04-22T02:50:08.772Z,12.50
2019-04-22T02:52:43.217Z,12.40
2019-04-22T02:55:15.417Z,12.50
2019-04-22T02:57:57.097Z,12.50
2019-04-22T03:00:27.341Z,12.40
2019-04-22T03:03:04.072Z,12.30
2019-04-22T03:07:55.929Z,12.30
2019-04-22T03:10:18.770Z,12.30
2019-04-22T03:12:41.900Z,12.40
2019-04-22T03:15:12.012Z,12.40
2019-04-22T03:17:51.634Z,12.30
2019-04-22T03:20:22.048Z,12.40
2019-04-22T03:22:59.562Z,12.40
2019-04-22T03:25:51.428Z,12.30
2019-04-22T03:27:47.840Z,12.10
2019-04-22T03:30:48.101Z,12.20
2019-04-22T03:37:52.960Z,12.40
2019-04-22T03:40:30.747Z,12.20
2019-04-22T03:42:55.707Z,12.10
2019-04-22T03:55:22.952Z,12.30
2019-04-22T03:57:55.578Z,12.20
2019-04-22T04:00:45.553Z,12.10
2019-04-22T04:03:01.106Z,12.10
2019-04-22T04:13:01.883Z,11.90
2019-04-22T04:15:23.702Z,11.80
2019-04-22T04:30:30.031Z,11.60
2019-04-22T04:37:55.928Z,11.70
2019-04-22T04:42:58.724Z,11.80
2019-04-22T04:45:45.052Z,11.80
2019-04-22T04:47:57.968Z,11.80
2019-04-22T04:50:35.898Z,11.80
2019-04-22T04:53:06.356Z,11.90
2019-04-22T04:58:13.039Z,11.70
2019-04-22T05:02:58.228Z,11.90
2019-04-22T05:10:41.209Z,11.80
2019-04-22T05:18:31.237Z,11.90
2019-04-22T05:23:19.407Z,11.90
2019-04-22T05:25:24.873Z,12.00
2019-04-22T05:28:11.794Z,11.80
2019-04-22T05:30:26.720Z,11.90
2019-04-22T05:32:54.171Z,12.00
2019-04-22T05:35:26.694Z,12.00
2019-04-22T05:38:04.200Z,12.10
2019-04-22T05:40:32.569Z,12.10
2019-04-22T05:42:56.557Z,12.10
2019-04-22T05:45:27.610Z,12.20
2019-04-22T05:47:59.514Z,12.20
2019-04-22T05:50:23.948Z,12.20
2019-04-22T05:52:57.063Z,12.20
2019-04-22T05:55:48.504Z,12.30
2019-04-22T06:03:04.112Z,12.40
2019-04-22T06:05:38.662Z,12.50
2019-04-22T06:08:04.077Z,12.60
2019-04-22T06:13:04.460Z,12.70
2019-04-22T06:15:39.009Z,12.70
2019-04-22T06:18:22.827Z,12.80
2019-04-22T06:20:53.167Z,12.80
2019-04-22T06:23:26.119Z,12.80
2019-04-22T06:26:05.297Z,13.00
2019-04-22T06:28:29.112Z,13.00
2019-04-22T06:30:57.558Z,13.20
2019-04-22T06:35:56.302Z,13.20
2019-04-22T06:40:55.294Z,13.40
2019-04-22T06:43:26.298Z,13.50
2019-04-22T06:45:51.745Z,13.70
2019-04-22T06:48:28.454Z,14.00
2019-04-22T06:50:53.955Z,14.00
2019-04-22T06:53:28.199Z,14.20
2019-04-22T06:55:51.444Z,14.20
2019-04-22T06:58:21.544Z,14.30
2019-04-22T07:00:59.409Z,14.40
2019-04-22T07:05:59.954Z,14.50
2019-04-22T07:08:59.270Z,14.50
2019-04-22T07:13:34.384Z,14.60
2019-04-22T07:16:00.406Z,14.70
2019-04-22T07:18:37.268Z,14.90
2019-04-22T07:21:01.510Z,15.00
2019-04-22T07:23:37.535Z,14.90
2019-04-22T07:25:58.421Z,15.00
2019-04-22T07:28:23.419Z,15.00
2019-04-22T07:31:08.095Z,15.10
2019-04-22T07:36:27.755Z,15.20
2019-04-22T07:38:32.768Z,15.40
2019-04-22T07:40:59.362Z,15.40
2019-04-22T07:46:00.672Z,15.70
2019-04-22T07:48:43.434Z,15.70
2019-04-22T07:53:33.803Z,16.00
2019-04-22T07:56:06.340Z,16.10
2019-04-22T07:58:36.009Z,16.10
2019-04-22T08:01:12.335Z,16.30
2019-04-22T08:03:47.738Z,16.30
2019-04-22T08:08:37.602Z,16.30
2019-04-22T08:11:21.560Z,16.50
2019-04-22T08:13:34.169Z,16.40
2019-04-22T08:16:10.590Z,16.60
2019-04-22T08:18:57.621Z,16.70
2019-04-22T08:21:22.216Z,16.80
2019-04-22T08:23:44.733Z,17.00
2019-04-22T08:26:04.866Z,17.20
2019-04-22T08:28:50.143Z,17.30
2019-04-22T08:31:14.579Z,17.50
2019-04-22T08:33:41.398Z,17.60
2019-04-22T08:36:17.742Z,17.70
2019-04-22T08:38:50.745Z,17.80
2019-04-22T08:41:32.112Z,18.00
2019-04-22T08:44:05.422Z,18.20
2019-04-22T08:46:25.598Z,18.30
2019-04-22T08:48:52.821Z,18.40
2019-04-22T08:51:20.961Z,18.60
2019-04-22T08:53:57.316Z,18.70
2019-04-22T08:56:29.827Z,18.80
2019-04-22T09:01:23.840Z,19.00
2019-04-22T09:03:54.971Z,19.10
2019-04-22T09:06:34.180Z,19.20
2019-04-22T09:08:54.099Z,19.50
2019-04-22T09:11:33.766Z,19.50
2019-04-22T09:13:55.826Z,19.70
2019-04-22T09:16:28.223Z,19.80
2019-04-22T09:18:56.180Z,19.90
2019-04-22T09:21:26.486Z,20.10
2019-04-22T09:24:02.255Z,20.30
2019-04-22T09:26:24.009Z,20.40
2019-04-22T09:29:02.849Z,20.60
2019-04-22T09:31:24.254Z,20.70
2019-04-22T09:33:51.491Z,20.90
2019-04-22T09:38:57.971Z,21.50
2019-04-22T09:41:27.155Z,21.70
2019-04-22T09:43:56.934Z,21.60
2019-04-22T09:46:28.275Z,21.90
2019-04-22T09:49:05.008Z,22.20
2019-04-22T09:51:26.882Z,22.20
2019-04-22T09:54:00.998Z,22.50
2019-04-22T09:56:31.892Z,23.00
2019-04-22T09:58:58.872Z,23.30
2019-04-22T10:11:32.606Z,23.00
2019-04-22T10:13:58.714Z,23.00
2019-04-22T10:19:04.360Z,23.30
2019-04-22T10:21:40.274Z,23.60
2019-04-22T10:24:03.427Z,23.60
2019-04-22T10:29:08.549Z,23.40
2019-04-22T10:31:40.631Z,23.70
2019-04-22T10:33:56.040Z,23.80
2019-04-22T10:36:10.741Z,24.00
2019-04-22T10:38:40.215Z,24.60
2019-04-22T10:41:10.227Z,26.90
2019-04-22T10:43:39.166Z,28.90
2019-04-22T10:46:08.236Z,28.50
2019-04-22T10:48:36.999Z,29.90
2019-04-22T10:51:06.542Z,28.70
2019-04-22T10:53:35.562Z,29.20
2019-04-22T10:56:05.220Z,29.40
2019-04-22T10:58:36.338Z,29.30
2019-04-22T11:01:05.329Z,29.90
2019-04-22T11:03:35.214Z,29.40
2019-04-22T11:06:05.510Z,29.60
2019-04-22T11:08:44.494Z,29.30
2019-04-22T11:11:18.940Z,30.50
2019-04-22T11:13:35.987Z,30.30
2019-04-22T11:16:05.534Z,30.00
2019-04-22T11:18:35.387Z,29.50
2019-04-22T11:24:00.709Z,30.30
2019-04-22T11:26:30.202Z,30.80
2019-04-22T11:29:03.490Z,31.70
2019-04-22T11:31:30.570Z,30.80
2019-04-22T11:34:00.640Z,31.50
2019-04-22T11:36:30.796Z,32.00
2019-04-22T11:39:03.547Z,31.20
2019-04-22T11:41:31.070Z,31.40
2019-04-22T11:44:01.193Z,32.70
2019-04-22T11:46:31.405Z,31.00
2019-04-22T11:49:00.344Z,31.90
2019-04-22T11:51:29.807Z,31.50
2019-04-22T11:53:58.806Z,31.80
2019-04-22T11:56:27.554Z,31.80
2019-04-22T11:58:57.050Z,32.70
2019-04-22T12:01:26.688Z,33.20
2019-04-22T12:03:55.796Z,31.60
2019-04-22T12:06:24.448Z,31.80
2019-04-22T12:08:54.157Z,31.70
2019-04-22T12:11:23.040Z,31.50
2019-04-22T12:13:51.873Z,32.30
2019-04-22T12:16:21.279Z,32.80
2019-04-22T12:18:51.216Z,31.90
2019-04-22T12:21:21.326Z,32.20
2019-04-22T12:23:50.921Z,32.10
2019-04-22T12:26:21.522Z,32.80
2019-04-22T12:28:50.984Z,34.50
2019-04-22T12:31:19.741Z,34.30
2019-04-22T12:33:49.311Z,33.80
2019-04-22T12:36:18.396Z,33.40
2019-04-22T12:38:47.544Z,34.30
2019-04-22T12:41:17.831Z,35.20
2019-04-22T12:43:47.385Z,34.80
2019-04-22T12:46:16.441Z,34.40
2019-04-22T12:48:47.738Z,35.30
2019-04-22T12:51:16.524Z,34.60
2019-04-22T12:53:46.286Z,34.60
2019-04-22T12:56:15.422Z,33.20
2019-04-22T12:58:45.790Z,33.60
2019-04-22T13:01:15.109Z,34.00
2019-04-22T13:03:44.671Z,32.90
2019-04-22T13:06:14.222Z,33.40
2019-04-22T13:08:43.589Z,34.30
2019-04-22T13:11:16.015Z,33.20
2019-04-22T13:13:42.917Z,33.60
2019-04-22T13:16:13.217Z,33.50
2019-04-22T13:18:50.245Z,34.00
2019-04-22T13:21:15.000Z,34.70
2019-04-22T13:23:44.514Z,34.30
2019-04-22T13:26:14.960Z,35.00
2019-04-22T13:28:44.996Z,34.10
2019-04-22T13:31:13.959Z,34.60
2019-04-22T13:33:43.034Z,34.40
2019-04-22T13:36:13.187Z,33.90
2019-04-22T13:38:42.928Z,34.10
2019-04-22T13:41:26.146Z,33.80
2019-04-22T13:43:42.911Z,33.20
2019-04-22T13:46:12.439Z,34.30
2019-04-22T13:49:09.711Z,33.90
2019-04-22T13:54:37.260Z,34.00
2019-04-22T13:56:30.414Z,33.40
2019-04-22T13:58:54.080Z,33.70
2019-04-22T14:01:14.708Z,33.20
2019-04-22T14:03:56.498Z,33.50
2019-04-22T14:06:32.106Z,32.60
2019-04-22T14:09:01.154Z,32.00
2019-04-22T14:11:37.634Z,32.50
2019-04-22T14:14:02.757Z,32.00
2019-04-22T14:16:33.042Z,32.50
2019-04-22T14:19:02.091Z,31.90
2019-04-22T14:21:30.728Z,32.00
2019-04-22T14:24:00.373Z,31.70
2019-04-22T14:26:44.233Z,32.30
2019-04-22T14:28:59.980Z,32.40
2019-04-22T14:31:28.761Z,32.80
2019-04-22T14:34:00.975Z,32.00
2019-04-22T14:36:27.607Z,31.60
2019-04-22T14:38:57.665Z,31.90
2019-04-22T14:41:40.591Z,32.40
2019-04-22T14:44:56.423Z,31.90
2019-04-22T14:46:58.235Z,32.40
2019-04-22T14:49:24.302Z,32.50
2019-04-22T14:51:49.641Z,31.90
2019-04-22T14:54:13.787Z,32.00
2019-04-22T14:56:28.639Z,32.20
2019-04-22T14:58:58.719Z,31.80
2019-04-22T15:01:28.917Z,31.50
2019-04-22T15:03:58.656Z,31.70
2019-04-22T15:06:28.467Z,31.90
2019-04-22T15:08:59.255Z,31.30
2019-04-22T15:11:29.037Z,31.90
2019-04-22T15:13:59.122Z,31.50
2019-04-22T15:16:48.822Z,31.60
2019-04-22T15:19:20.153Z,31.20
2019-04-22T15:21:48.679Z,31.30
2019-04-22T15:24:25.080Z,31.60
2019-04-22T15:26:56.317Z,31.10
2019-04-22T15:29:25.393Z,31.30
2019-04-22T15:31:55.543Z,31.30
2019-04-22T15:34:25.005Z,30.80
2019-04-22T15:36:54.077Z,31.00
2019-04-22T15:39:23.162Z,30.90
2019-04-22T15:42:00.464Z,31.10
2019-04-22T15:44:22.102Z,31.30
2019-04-22T15:46:50.965Z,30.80
2019-04-22T15:49:20.117Z,30.90
2019-04-22T15:51:48.918Z,30.40
2019-04-22T15:54:17.613Z,30.20
2019-04-22T15:56:46.563Z,30.80
2019-04-22T16:01:48.623Z,30.70
2019-04-22T16:04:18.746Z,30.20
2019-04-22T16:06:47.562Z,30.30
2019-04-22T16:09:17.313Z,30.40
2019-04-22T16:11:47.635Z,29.90
2019-04-22T16:14:27.483Z,30.20
2019-04-22T16:16:50.376Z,29.70
2019-04-22T16:19:21.288Z,29.20
2019-04-22T16:21:56.594Z,28.00
2019-04-22T16:24:27.902Z,27.20
2019-04-22T16:26:58.286Z,27.20
2019-04-22T16:29:27.493Z,27.10
2019-04-22T16:31:57.549Z,26.70
2019-04-22T16:34:27.248Z,26.80
2019-04-22T16:36:56.746Z,27.00
2019-04-22T16:39:26.749Z,26.90
2019-04-22T16:41:56.883Z,26.80
2019-04-22T16:44:26.844Z,26.80
2019-04-22T16:46:55.538Z,26.80
2019-04-22T16:49:25.500Z,26.80
2019-04-22T16:51:54.287Z,26.60
2019-04-22T16:54:24.227Z,26.10
2019-04-22T16:56:54.221Z,26.00
2019-04-22T16:59:22.840Z,25.70
2019-04-22T17:01:54.462Z,25.70
2019-04-22T17:04:38.580Z,25.40
2019-04-22T17:07:08.887Z,25.40
2019-04-22T17:09:37.578Z,25.40
2019-04-22T17:12:06.216Z,25.20
2019-04-22T17:14:43.531Z,25.10
2019-04-22T17:17:06.562Z,25.30
2019-04-22T17:19:35.505Z,24.90
2019-04-22T17:22:05.754Z,24.60
2019-04-22T17:24:35.434Z,24.40
2019-04-22T17:27:06.432Z,24.30
2019-04-22T17:29:36.589Z,24.10
2019-04-22T17:32:11.748Z,23.90
2019-04-22T17:34:36.214Z,23.80
2019-04-22T17:37:11.468Z,23.70
2019-04-22T17:39:46.425Z,23.70
2019-04-22T17:42:25.128Z,23.50
2019-04-22T17:45:02.662Z,23.60
2019-04-22T17:47:29.022Z,23.40
2019-04-22T17:50:10.426Z,23.40
2019-04-22T17:52:36.407Z,23.20
2019-04-22T17:55:07.530Z,23.20
2019-04-22T17:57:34.550Z,23.00
2019-04-22T18:00:06.200Z,22.90
2019-04-22T18:02:32.206Z,22.90
2019-04-22T18:04:53.318Z,22.80
2019-04-22T18:07:41.187Z,22.70
2019-04-22T18:12:43.828Z,22.60
2019-04-22T18:15:11.400Z,22.60
2019-04-22T18:17:41.636Z,22.50
2019-04-22T18:20:04.624Z,22.40
2019-04-22T18:22:29.318Z,22.40
2019-04-22T18:25:02.223Z,22.30
2019-04-22T18:30:05.097Z,22.10
2019-04-22T18:32:37.969Z,22.20
2019-04-22T18:35:11.754Z,21.90
2019-04-22T18:37:46.982Z,21.90
2019-04-22T18:40:14.868Z,21.90
2019-04-22T18:42:46.337Z,21.60
2019-04-22T18:45:29.788Z,21.70
2019-04-22T18:47:38.770Z,21.70
2019-04-22T18:50:08.710Z,21.60
2019-04-22T18:53:03.670Z,21.40
2019-04-22T18:55:31.975Z,21.50
2019-04-22T18:58:09.019Z,21.20
2019-04-22T19:00:34.225Z,21.40
2019-04-22T19:03:13.133Z,21.40
2019-04-22T19:05:55.493Z,21.10
2019-04-22T19:08:29.200Z,20.90
2019-04-22T19:11:02.475Z,20.80
2019-04-22T19:13:54.475Z,20.90
2019-04-22T19:16:14.315Z,21.10
2019-04-22T19:18:36.438Z,21.10
2019-04-22T19:21:07.879Z,21.20
2019-04-22T19:23:33.210Z,21.10
2019-04-22T19:26:10.072Z,20.80
2019-04-22T19:33:49.364Z,20.80
2019-04-22T19:36:19.293Z,20.80
2019-04-22T19:38:34.070Z,20.30
2019-04-22T19:41:20.044Z,20.20
2019-04-22T19:43:47.324Z,20.10
2019-04-22T19:46:12.994Z,20.10
2019-04-22T19:48:45.016Z,20.00
2019-04-22T19:51:23.341Z,19.70
2019-04-22T19:53:49.419Z,19.60
2019-04-22T19:56:17.801Z,19.60
2019-04-22T19:58:47.645Z,19.50
2019-04-22T20:01:25.931Z,19.40
2019-04-22T20:04:13.159Z,19.40
2019-04-22T20:06:41.234Z,19.30
2019-04-22T20:09:13.674Z,19.40
2019-04-22T20:11:41.771Z,19.30
2019-04-22T20:14:12.055Z,19.20
2019-04-22T20:16:41.239Z,19.10
2019-04-22T20:19:19.317Z,19.00
2019-04-22T20:21:49.345Z,19.10
2019-04-22T20:24:02.161Z,19.10
2019-04-22T20:26:50.095Z,19.00
2019-04-22T20:29:21.022Z,18.80
2019-04-22T20:31:50.288Z,18.80
2019-04-22T20:34:22.306Z,18.70
2019-04-22T20:37:01.890Z,18.70
2019-04-22T20:39:10.863Z,18.60
2019-04-22T20:41:43.260Z,18.60
2019-04-22T20:44:24.665Z,18.60
2019-04-22T20:46:44.670Z,18.50
2019-04-22T20:49:22.331Z,18.40
2019-04-22T20:54:17.671Z,18.40
2019-04-22T20:56:45.204Z,18.40
2019-04-22T20:59:19.441Z,18.30
2019-04-22T21:02:01.939Z,18.30
2019-04-22T21:04:32.284Z,18.30
2019-04-22T21:07:04.987Z,18.10
2019-04-22T21:09:37.961Z,18.10
2019-04-22T21:12:05.138Z,18.10
2019-04-22T21:14:32.138Z,18.00
2019-04-22T21:17:13.046Z,17.90
2019-04-22T21:19:47.642Z,17.90
2019-04-22T21:22:16.230Z,17.90
2019-04-22T21:24:40.228Z,17.70
2019-04-22T21:32:21.754Z,17.40
2019-04-22T21:34:52.843Z,17.50
2019-04-22T21:37:26.836Z,17.40
2019-04-22T21:39:50.839Z,17.40
2019-04-22T21:42:24.154Z,17.30
2019-04-22T21:44:49.670Z,17.20
2019-04-22T21:47:30.093Z,17.20
2019-04-22T21:50:09.843Z,17.20
2019-04-22T21:52:24.942Z,17.20
2019-04-22T21:54:59.692Z,17.10
2019-04-22T21:57:46.119Z,17.10
2019-04-22T21:59:58.173Z,17.10
2019-04-22T22:02:28.075Z,16.90
2019-04-22T22:04:54.250Z,16.90
2019-04-22T22:07:14.412Z,16.80
2019-04-22T22:10:01.439Z,16.80
2019-04-22T22:12:33.331Z,16.60
2019-04-22T22:15:04.104Z,16.70
2019-04-22T22:17:27.781Z,16.70
2019-04-22T22:19:57.800Z,16.50
2019-04-22T22:25:01.242Z,16.60
2019-04-22T22:27:31.157Z,16.50
2019-04-22T22:30:27.416Z,16.60
2019-04-22T22:32:35.401Z,16.50
2019-04-22T22:35:03.154Z,16.40
2019-04-22T22:37:21.989Z,16.40
2019-04-22T22:39:51.350Z,16.30
2019-04-22T22:42:25.057Z,16.20
2019-04-22T22:44:48.478Z,16.20
2019-04-22T22:47:30.266Z,16.20
2019-04-22T22:50:03.055Z,16.10
2019-04-22T22:52:53.660Z,16.10
2019-04-22T22:55:08.784Z,16.00
2019-04-22T22:57:38.277Z,15.90
2019-04-22T23:00:03.842Z,15.80
2019-04-22T23:02:36.875Z,16.00
2019-04-22T23:05:09.669Z,15.90
2019-04-22T23:07:40.528Z,15.80
2019-04-22T23:10:07.935Z,15.80
2019-04-22T23:12:55.604Z,15.80
2019-04-22T23:15:06.277Z,15.80
2019-04-22T23:17:25.423Z,15.60
2019-04-22T23:19:51.767Z,15.70
2019-04-22T23:22:28.521Z,15.60
2019-04-22T23:25:08.047Z,15.60
2019-04-22T23:27:42.078Z,15.70
2019-04-22T23:30:17.036Z,15.40
2019-04-22T23:32:51.766Z,15.40
2019-04-22T23:35:33.869Z,15.40
2019-04-22T23:38:04.847Z,15.40
2019-04-22T23:40:38.490Z,15.30
2019-04-22T23:43:09.050Z,15.20
2019-04-22T23:45:41.694Z,15.20
2019-04-22T23:48:05.931Z,15.20
2019-04-22T23:50:41.246Z,15.10
2019-04-22T23:53:08.682Z,15.40
2019-04-22T23:55:46.388Z,15.10
2019-04-22T23:58:11.128Z,15.10
